Time;durP1;ratioP1;P1;durP2;ratioP2;P2;SDS_P1;SDS_P2;PMS_P1;PMS_P2;Temp;Humidity;BMP_temperature;BMP_pressure;BME280_temperature;BME280_humidity;BME280_pressure;Samples;Min_cycle;Max_cycle;Signal;HPM_P1;HPM_P2
2022/02/05 00:01:24;;;;;;;4.20;2.42;;;4.10;99.90;;;;;;5041535;28;20033;-81
2022/02/05 00:03:57;;;;;;;3.80;2.40;;;4.00;99.90;;;;;;5026957;28;20045;-82
2022/02/05 00:06:29;;;;;;;3.72;2.50;;;4.00;99.90;;;;;;5036131;28;20068;-81
2022/02/05 00:09:08;;;;;;;3.95;2.67;;;4.10;99.90;;;;;;5008968;28;20025;-81
2022/02/05 00:12:25;;;;;;;6.32;2.47;;;4.10;99.90;;;;;;5025114;28;20170;-80
2022/02/05 00:20:26;;;;;;;7.22;2.70;;;3.90;99.90;;;;;;5029051;28;20518;-81
2022/02/05 00:41:49;;;;;;;7.38;3.50;;;4.00;99.90;;;;;;5070368;28;20086;-79
2022/02/05 00:44:26;;;;;;;9.55;3.60;;;4.00;99.90;;;;;;5047079;28;20033;-81
2022/02/05 00:46:52;;;;;;;9.68;3.65;;;3.90;99.90;;;;;;5042822;28;20037;-80
2022/02/05 00:49:18;;;;;;;6.25;3.03;;;4.00;99.90;;;;;;5059844;28;20025;-82
2022/02/05 00:51:52;;;;;;;7.97;4.10;;;4.00;99.90;;;;;;5025608;28;20191;-81
2022/02/05 00:54:21;;;;;;;9.25;3.40;;;4.10;99.90;;;;;;5046566;28;20074;-81
2022/02/05 00:59:14;;;;;;;8.27;3.90;;;4.10;99.90;;;;;;5025106;28;20079;-83
2022/02/05 01:01:46;;;;;;;8.40;3.85;;;4.00;99.90;;;;;;5001600;28;20072;-81
2022/02/05 01:04:12;;;;;;;8.50;4.07;;;4.10;99.90;;;;;;5030187;28;20124;-81
2022/02/05 01:06:42;;;;;;;6.65;4.28;;;4.10;99.90;;;;;;5044763;28;20089;-81
2022/02/05 01:09:18;;;;;;;9.30;4.03;;;4.10;99.90;;;;;;5033829;28;20060;-82
2022/02/05 01:11:44;;;;;;;9.35;3.70;;;4.10;99.90;;;;;;5032709;28;20096;-82
2022/02/05 01:14:13;;;;;;;12.60;4.82;;;4.20;99.90;;;;;;5030454;28;20069;-82
2022/02/05 01:17:02;;;;;;;7.60;3.90;;;4.10;99.90;;;;;;5051122;28;20040;-81
2022/02/05 01:21:58;;;;;;;9.13;3.42;;;4.20;99.90;;;;;;5045953;28;20071;-81
2022/02/05 01:24:24;;;;;;;6.15;4.15;;;4.10;99.90;;;;;;5049099;28;20068;-79
2022/02/05 01:27:56;;;;;;;8.48;3.65;;;4.10;99.90;;;;;;5070412;28;20755;-57
2022/02/05 01:33:10;;;;;;;6.65;3.97;;;4.10;99.90;;;;;;5069673;28;20041;-58
2022/02/05 01:35:45;;;;;;;7.72;3.30;;;4.00;99.90;;;;;;5064626;28;20060;-58
2022/02/05 01:57:25;;;;;;;8.25;4.40;;;4.10;99.90;;;;;;5061375;28;20032;-61
2022/02/05 02:05:28;;;;;;;8.35;4.53;;;4.10;99.90;;;;;;5056588;28;20025;-55
2022/02/05 02:10:51;;;;;;;8.65;4.15;;;4.20;99.90;;;;;;5061745;28;20033;-59
2022/02/05 02:14:01;;;;;;;9.40;4.88;;;4.30;99.90;;;;;;5070369;28;20040;-56
2022/02/05 02:23:55;;;;;;;9.02;4.05;;;4.10;99.90;;;;;;5064654;28;20166;-54
2022/02/05 02:26:49;;;;;;;8.60;4.75;;;4.20;99.90;;;;;;5066597;28;20090;-56
2022/02/05 02:29:29;;;;;;;5.97;4.43;;;4.20;99.90;;;;;;5063942;28;20033;-53
2022/02/05 02:31:56;;;;;;;9.55;4.60;;;4.10;99.90;;;;;;5066731;28;20089;-57
2022/02/05 02:34:27;;;;;;;10.65;5.30;;;4.20;99.90;;;;;;5065753;28;20117;-55
2022/02/05 02:36:58;;;;;;;7.13;4.80;;;4.10;99.90;;;;;;5051766;28;20033;-56
2022/02/05 02:39:32;;;;;;;10.60;4.93;;;4.10;99.90;;;;;;5039936;28;20503;-54
2022/02/05 02:42:06;;;;;;;6.55;4.50;;;4.20;99.90;;;;;;5053289;28;20393;-54
2022/02/05 02:44:32;;;;;;;6.60;4.85;;;4.10;99.90;;;;;;5050264;28;20030;-53
2022/02/05 02:46:57;;;;;;;8.48;4.90;;;4.10;99.90;;;;;;5034573;28;20140;-53
2022/02/05 02:49:43;;;;;;;9.50;5.40;;;4.00;99.90;;;;;;5036283;28;20120;-53
2022/02/05 02:57:52;;;;;;;13.10;6.20;;;3.70;99.90;;;;;;5054999;28;20040;-53
2022/02/05 03:00:18;;;;;;;11.90;6.30;;;3.60;99.90;;;;;;5046900;28;20029;-56
2022/02/05 03:02:44;;;;;;;8.95;5.45;;;3.70;99.90;;;;;;5054640;28;20048;-56
2022/02/05 03:05:09;;;;;;;12.23;5.95;;;3.60;99.90;;;;;;5039531;28;20524;-53
2022/02/05 03:07:35;;;;;;;11.18;5.47;;;3.60;99.90;;;;;;5034681;28;20033;-56
2022/02/05 03:10:00;;;;;;;11.80;5.55;;;3.60;99.90;;;;;;5048122;28;20029;-53
2022/02/05 03:12:26;;;;;;;8.07;4.90;;;3.70;99.90;;;;;;5054205;28;20029;-55
2022/02/05 03:14:53;;;;;;;14.13;4.95;;;3.80;99.90;;;;;;5043223;28;20460;-54
2022/02/05 03:17:21;;;;;;;10.98;5.35;;;3.70;99.90;;;;;;5034609;28;20061;-56
2022/02/05 03:19:49;;;;;;;10.98;5.88;;;3.70;99.90;;;;;;5042253;28;20435;-56
2022/02/05 03:22:17;;;;;;;9.18;5.78;;;3.80;99.90;;;;;;5054732;28;20048;-56
2022/02/05 03:24:42;;;;;;;10.93;5.85;;;3.70;99.90;;;;;;5054318;28;20036;-52
2022/02/05 03:27:10;;;;;;;12.85;6.32;;;3.70;99.90;;;;;;5054233;28;20041;-54
2022/02/05 03:29:36;;;;;;;9.27;5.35;;;3.70;99.90;;;;;;5046922;28;20025;-52
2022/02/05 03:32:02;;;;;;;9.32;5.47;;;3.70;99.90;;;;;;5035274;28;20038;-56
2022/02/05 03:34:28;;;;;;;11.93;5.55;;;3.80;99.90;;;;;;5039353;28;20408;-52
2022/02/05 03:36:53;;;;;;;10.63;6.30;;;3.80;99.90;;;;;;5054089;28;20029;-58
2022/02/05 03:39:19;;;;;;;15.23;6.05;;;3.90;99.90;;;;;;5050743;28;20041;-59
2022/02/05 03:41:44;;;;;;;9.00;5.90;;;3.80;99.90;;;;;;5034312;28;20049;-56
2022/02/05 03:44:10;;;;;;;10.52;5.80;;;3.80;99.90;;;;;;5035443;28;20048;-55
2022/02/05 03:46:36;;;;;;;9.95;5.47;;;3.80;99.90;;;;;;5054000;28;20049;-56
2022/02/05 03:49:02;;;;;;;8.25;5.47;;;3.70;99.90;;;;;;5052930;28;20057;-56
2022/02/05 03:51:28;;;;;;;13.00;5.78;;;3.60;99.90;;;;;;5034014;28;20025;-55
2022/02/05 03:53:53;;;;;;;11.85;5.78;;;3.60;99.90;;;;;;5039064;28;20029;-57
2022/02/05 03:56:19;;;;;;;9.57;5.32;;;3.50;99.90;;;;;;5053411;28;20033;-53
2022/02/05 03:58:45;;;;;;;8.77;5.63;;;3.60;99.90;;;;;;5049655;28;20040;-52
2022/02/05 04:01:13;;;;;;;10.90;5.20;;;3.60;99.90;;;;;;5032538;28;20120;-55
2022/02/05 04:03:38;;;;;;;9.10;5.90;;;3.60;99.90;;;;;;5038210;28;20041;-56
2022/02/05 04:06:04;;;;;;;6.97;5.57;;;3.70;99.90;;;;;;5032464;28;20124;-59
2022/02/05 04:08:30;;;;;;;9.45;5.25;;;3.60;99.90;;;;;;5034289;28;20048;-55
2022/02/05 04:11:05;;;;;;;7.85;5.00;;;3.60;99.90;;;;;;5052498;28;20033;-57
2022/02/05 04:16:22;;;;;;;11.60;5.80;;;3.50;99.90;;;;;;5034012;28;20140;-53
2022/02/05 04:18:53;;;;;;;8.93;4.75;;;3.40;99.90;;;;;;5034038;28;20048;-56
2022/02/05 04:21:20;;;;;;;9.90;5.65;;;3.30;99.90;;;;;;5032580;28;20132;-57
2022/02/05 04:23:47;;;;;;;13.98;5.82;;;3.30;99.90;;;;;;5047077;28;20071;-54
2022/02/05 04:26:15;;;;;;;10.18;5.43;;;3.40;99.90;;;;;;5051469;28;20025;-55
2022/02/05 04:28:40;;;;;;;10.50;5.78;;;3.20;99.90;;;;;;5046578;28;20421;-59
2022/02/05 04:31:06;;;;;;;9.07;5.15;;;3.10;99.90;;;;;;5033396;28;20030;-54
2022/02/05 04:33:32;;;;;;;6.90;4.88;;;3.10;99.90;;;;;;5037944;28;20040;-56
2022/02/05 04:35:57;;;;;;;8.98;5.28;;;3.10;99.90;;;;;;5052814;28;20104;-56
2022/02/05 04:38:24;;;;;;;12.85;5.63;;;3.10;99.90;;;;;;5049707;28;20452;-59
2022/02/05 04:41:01;;;;;;;6.47;5.32;;;3.30;99.90;;;;;;5031610;28;20037;-55
2022/02/05 04:56:42;;;;;;;7.90;4.60;;;3.30;99.90;;;;;;5041752;28;20040;-54
2022/02/05 05:10:07;;;;;;;8.88;5.80;;;3.30;99.90;;;;;;5049368;28;20295;-54
2022/02/05 05:12:50;;;;;;;9.63;6.15;;;3.20;99.90;;;;;;5051803;28;20131;-56
2022/02/05 05:15:35;;;;;;;9.65;5.70;;;3.10;99.90;;;;;;5032786;28;20087;-55
2022/02/05 05:20:55;;;;;;;10.25;5.68;;;3.20;99.90;;;;;;5032253;28;20030;-56
2022/02/05 05:23:21;;;;;;;10.05;5.93;;;3.00;99.90;;;;;;5042916;28;20087;-52
2022/02/05 05:25:47;;;;;;;12.88;6.53;;;3.00;99.90;;;;;;5052182;28;20041;-54
2022/02/05 05:28:13;;;;;;;10.60;5.57;;;2.90;99.90;;;;;;5048934;28;20489;-57
2022/02/05 05:30:38;;;;;;;8.07;5.60;;;3.00;99.90;;;;;;5032414;28;20033;-58
2022/02/05 05:33:04;;;;;;;9.65;5.93;;;3.00;99.90;;;;;;5032658;28;20550;-57
2022/02/05 05:35:30;;;;;;;11.93;5.93;;;3.10;99.90;;;;;;5051678;28;20032;-55
2022/02/05 05:37:55;;;;;;;11.82;6.50;;;3.00;99.90;;;;;;5049718;28;20503;-56
2022/02/05 05:40:21;;;;;;;11.55;5.60;;;3.10;99.90;;;;;;5051778;28;20503;-55
2022/02/05 05:42:54;;;;;;;9.07;5.85;;;3.20;99.90;;;;;;5052057;28;20044;-54
2022/02/05 05:53:09;;;;;;;7.95;5.47;;;3.30;99.90;;;;;;5037673;28;20400;-56
2022/02/05 05:55:35;;;;;;;12.50;5.45;;;3.20;99.90;;;;;;5049258;28;20412;-57
2022/02/05 05:58:02;;;;;;;12.30;5.97;;;3.20;99.90;;;;;;5050865;28;20029;-55
2022/02/05 06:00:27;;;;;;;10.40;5.68;;;3.20;99.90;;;;;;5041134;28;20047;-59
2022/02/05 06:02:53;;;;;;;9.77;5.40;;;3.20;99.90;;;;;;5050412;28;20109;-55
2022/02/05 06:05:19;;;;;;;9.50;5.47;;;3.20;99.90;;;;;;5036928;28;20034;-56
2022/02/05 06:07:44;;;;;;;10.63;5.32;;;3.10;99.90;;;;;;5031454;28;20099;-54
2022/02/05 06:10:10;;;;;;;9.40;5.22;;;3.20;99.90;;;;;;5047202;28;20044;-57
2022/02/05 06:12:36;;;;;;;11.15;5.68;;;3.10;99.90;;;;;;5051698;28;20057;-58
2022/02/05 06:15:05;;;;;;;9.85;5.70;;;3.10;99.90;;;;;;5036352;28;20029;-54
2022/02/05 06:17:30;;;;;;;10.68;6.18;;;3.00;99.90;;;;;;5036102;28;20128;-56
2022/02/05 06:19:56;;;;;;;9.80;5.78;;;3.00;99.90;;;;;;5054867;28;20120;-54
2022/02/05 06:22:22;;;;;;;9.77;6.10;;;3.00;99.90;;;;;;5051538;28;20057;-54
2022/02/05 06:24:50;;;;;;;8.57;4.95;;;3.00;99.90;;;;;;5038185;28;20030;-53
2022/02/05 06:27:16;;;;;;;8.85;5.22;;;3.00;99.90;;;;;;5041531;28;20037;-56
2022/02/05 06:29:41;;;;;;;9.38;5.18;;;3.00;99.90;;;;;;5052094;28;20056;-55
2022/02/05 06:32:07;;;;;;;7.53;4.70;;;3.00;99.90;;;;;;5054212;28;20124;-58
2022/02/05 06:34:33;;;;;;;9.48;5.47;;;3.10;99.90;;;;;;5020433;28;20499;-54
2022/02/05 06:36:59;;;;;;;13.35;6.60;;;3.20;99.90;;;;;;5054130;28;20041;-58
2022/02/05 06:39:25;;;;;;;10.20;5.78;;;3.20;99.90;;;;;;5055065;28;20496;-53
2022/02/05 06:41:51;;;;;;;9.95;6.05;;;3.20;99.90;;;;;;5036840;28;20130;-55
2022/02/05 06:44:18;;;;;;;8.75;5.18;;;3.30;99.90;;;;;;5035548;28;20030;-56
2022/02/05 06:46:44;;;;;;;9.95;5.70;;;3.30;99.90;;;;;;5050197;28;20037;-56
2022/02/05 06:49:10;;;;;;;10.63;5.90;;;3.30;99.90;;;;;;5048273;28;20040;-56
2022/02/05 06:51:35;;;;;;;12.48;5.80;;;3.30;99.90;;;;;;5034818;28;20033;-56
2022/02/05 06:54:01;;;;;;;7.43;5.53;;;3.30;99.90;;;;;;5037885;28;20041;-57
2022/02/05 06:56:27;;;;;;;8.93;5.95;;;3.40;99.90;;;;;;5054963;28;20096;-56
2022/02/05 06:58:53;;;;;;;8.05;5.80;;;3.40;99.90;;;;;;5052949;28;20524;-55
2022/02/05 07:01:18;;;;;;;12.10;6.30;;;3.40;99.90;;;;;;5033701;28;20033;-54
2022/02/05 07:03:44;;;;;;;8.55;6.40;;;3.40;99.90;;;;;;5042248;28;20113;-58
2022/02/05 07:06:10;;;;;;;12.80;7.15;;;3.40;99.90;;;;;;5049286;28;20110;-56
2022/02/05 07:08:35;;;;;;;11.95;5.72;;;3.50;99.90;;;;;;5053997;28;20416;-57
2022/02/05 07:11:03;;;;;;;12.07;5.78;;;3.50;99.90;;;;;;5054497;28;20025;-56
2022/02/05 07:13:29;;;;;;;7.65;6.63;;;3.50;99.90;;;;;;5046627;28;20053;-55
2022/02/05 07:16:08;;;;;;;9.30;6.10;;;3.50;99.90;;;;;;5034935;28;20045;-55
2022/02/05 07:21:28;;;;;;;9.32;5.90;;;3.50;99.90;;;;;;5039110;28;20072;-56
2022/02/05 07:24:12;;;;;;;11.93;6.20;;;3.50;99.90;;;;;;5054393;28;20036;-50
2022/02/05 07:29:22;;;;;;;8.00;5.32;;;3.60;99.90;;;;;;5034474;28;20092;-59
2022/02/05 07:31:57;;;;;;;9.32;5.40;;;3.70;99.90;;;;;;5047265;28;20064;-55
2022/02/05 07:34:32;;;;;;;13.35;5.72;;;3.70;99.90;;;;;;5034159;28;20030;-55
2022/02/05 07:37:01;;;;;;;;;;;3.70;99.90;;;;;;5049607;28;20114;-58
2022/02/05 07:39:28;;;;;;;9.02;5.35;;;3.90;99.90;;;;;;5049241;28;19909;-55
2022/02/05 07:41:54;;;;;;;11.68;5.57;;;3.80;99.90;;;;;;5047786;28;20195;-55
2022/02/05 07:44:21;;;;;;;10.65;5.40;;;3.80;99.90;;;;;;5053099;28;20244;-56
2022/02/05 07:46:49;;;;;;;14.10;6.72;;;3.90;99.90;;;;;;5047237;28;20044;-57
2022/02/05 07:49:20;;;;;;;12.25;5.55;;;3.70;99.90;;;;;;5053028;28;20029;-58
2022/02/05 07:51:47;;;;;;;8.80;5.95;;;3.70;99.90;;;;;;5051176;28;20029;-56
2022/02/05 07:54:12;;;;;;;7.68;5.63;;;3.80;99.90;;;;;;5051256;28;20025;-58
2022/02/05 07:56:46;;;;;;;8.77;5.90;;;3.90;99.90;;;;;;5052630;28;20036;-55
2022/02/05 07:59:13;;;;;;;13.73;5.40;;;4.00;99.90;;;;;;5039908;28;20045;-57
2022/02/05 08:01:39;;;;;;;12.57;5.18;;;4.10;99.90;;;;;;5034534;28;20110;-58
2022/02/05 08:04:05;;;;;;;7.60;5.18;;;4.10;99.90;;;;;;5042902;28;20037;-57
2022/02/05 08:06:32;;;;;;;10.85;5.15;;;4.20;99.90;;;;;;5043621;28;20048;-56
2022/02/05 08:09:01;;;;;;;8.95;4.70;;;4.30;99.90;;;;;;5048623;28;20036;-56
2022/02/05 08:11:44;;;;;;;8.27;5.03;;;4.30;99.90;;;;;;5033591;28;20025;-58
2022/02/05 08:14:11;;;;;;;13.55;5.13;;;4.30;99.90;;;;;;5039123;28;20036;-58
2022/02/05 08:19:10;;;;;;;9.02;5.18;;;4.40;99.90;;;;;;5052257;28;20631;-57
2022/02/05 08:21:36;;;;;;;7.70;5.32;;;4.30;99.90;;;;;;5035440;28;20033;-58
2022/02/05 08:24:01;;;;;;;9.05;4.93;;;4.30;99.90;;;;;;5052390;28;20032;-56
2022/02/05 08:26:29;;;;;;;12.50;5.70;;;4.30;99.90;;;;;;5051921;28;20473;-59
2022/02/05 08:29:00;;;;;;;11.00;5.70;;;4.30;99.90;;;;;;5037813;28;20402;-56
2022/02/05 08:31:26;;;;;;;13.80;5.47;;;4.30;99.90;;;;;;5049918;28;20029;-57
2022/02/05 08:33:52;;;;;;;8.60;5.10;;;4.20;99.90;;;;;;5049868;28;20029;-58
2022/02/05 08:36:23;;;;;;;11.85;5.75;;;4.20;99.90;;;;;;5047418;28;20470;-56
2022/02/05 08:38:50;;;;;;;12.35;5.40;;;4.30;99.90;;;;;;5039867;28;20037;-58
2022/02/05 08:41:16;;;;;;;12.23;5.47;;;4.40;99.90;;;;;;5051773;28;20075;-55
2022/02/05 08:43:42;;;;;;;9.35;5.32;;;4.50;99.90;;;;;;5051959;28;20044;-54
2022/02/05 08:46:08;;;;;;;10.07;5.43;;;4.50;99.90;;;;;;5053034;28;20117;-60
2022/02/05 08:48:34;;;;;;;11.65;5.22;;;4.60;99.90;;;;;;5047283;28;20104;-54
2022/02/05 08:51:00;;;;;;;11.98;5.68;;;4.70;99.90;;;;;;5043421;28;20052;-58
2022/02/05 08:53:25;;;;;;;10.77;5.00;;;4.70;99.90;;;;;;5045681;28;20032;-60
2022/02/05 08:55:53;;;;;;;9.77;5.18;;;4.80;99.90;;;;;;5055129;28;20033;-59
2022/02/05 08:58:20;;;;;;;10.82;5.20;;;4.90;99.90;;;;;;5051533;28;20088;-59
2022/02/05 09:01:07;;;;;;;10.60;5.15;;;4.80;99.90;;;;;;5056314;28;20025;-59
2022/02/05 09:03:39;;;;;;;12.98;5.38;;;4.90;99.90;;;;;;5057409;28;20021;-59
2022/02/05 09:06:06;;;;;;;11.55;5.28;;;5.20;99.90;;;;;;5054661;28;20033;-59
2022/02/05 09:08:50;;;;;;;10.32;5.22;;;5.20;99.90;;;;;;5050031;28;20029;-59
2022/02/05 09:16:38;;;;;;;7.22;4.57;;;5.30;99.90;;;;;;5050473;28;20082;-58
2022/02/05 09:19:03;;;;;;;13.80;4.38;;;5.20;99.90;;;;;;5040714;28;20045;-61
2022/02/05 09:21:31;;;;;;;9.25;4.68;;;5.20;99.90;;;;;;5031930;28;20045;-60
2022/02/05 09:23:59;;;;;;;11.40;4.82;;;5.30;99.90;;;;;;5047669;28;20033;-61
2022/02/05 09:26:25;;;;;;;10.90;5.00;;;5.30;99.90;;;;;;5051987;28;20101;-59
2022/02/05 09:28:52;;;;;;;8.65;4.63;;;5.20;99.90;;;;;;5050306;28;20041;-59
2022/02/05 09:31:28;;;;;;;9.80;5.47;;;5.30;99.90;;;;;;5034401;28;20454;-61
2022/02/05 09:33:53;;;;;;;9.43;4.53;;;5.40;99.90;;;;;;5045625;28;20114;-60
2022/02/05 09:36:20;;;;;;;8.27;4.72;;;5.40;99.90;;;;;;5049933;28;20032;-62
2022/02/05 09:38:45;;;;;;;13.93;4.72;;;5.50;99.90;;;;;;5052317;28;20029;-63
2022/02/05 09:41:11;;;;;;;8.55;4.25;;;5.50;99.90;;;;;;5038966;28;20389;-61
2022/02/05 09:43:37;;;;;;;8.05;4.10;;;5.40;99.90;;;;;;5047852;28;20037;-61
2022/02/05 09:46:02;;;;;;;8.77;5.05;;;5.40;99.90;;;;;;5040586;28;20033;-60
2022/02/05 09:48:30;;;;;;;10.13;4.80;;;5.50;99.90;;;;;;5044280;28;20087;-58
2022/02/05 09:51:04;;;;;;;8.10;4.60;;;5.50;99.90;;;;;;5043971;28;20033;-63
2022/02/05 09:53:31;;;;;;;8.85;4.88;;;5.50;99.90;;;;;;5043786;28;20033;-61
2022/02/05 09:55:56;;;;;;;10.55;4.75;;;5.60;99.90;;;;;;5046370;28;20388;-62
2022/02/05 09:58:22;;;;;;;9.95;4.20;;;5.80;99.90;;;;;;5043230;28;20017;-59
2022/02/05 10:01:03;;;;;;;8.75;4.43;;;5.80;99.90;;;;;;5046281;28;20073;-60
2022/02/05 10:03:34;;;;;;;11.60;4.28;;;5.80;99.90;;;;;;5044158;28;20826;-57
2022/02/05 10:06:13;;;;;;;10.20;4.57;;;5.70;99.90;;;;;;5043226;28;20041;-58
2022/02/05 10:08:59;;;;;;;9.23;4.18;;;5.70;99.90;;;;;;5043389;28;20104;-60
2022/02/05 10:11:26;;;;;;;10.30;4.82;;;5.70;99.90;;;;;;5053000;28;20044;-62
2022/02/05 10:13:53;;;;;;;10.32;5.05;;;5.70;99.90;;;;;;5054246;28;20060;-60
2022/02/05 10:16:29;;;;;;;8.32;4.28;;;5.80;99.90;;;;;;5049035;28;20067;-61
2022/02/05 10:18:59;;;;;;;13.85;5.05;;;5.80;99.90;;;;;;5047002;28;20031;-61
2022/02/05 10:21:28;;;;;;;9.45;4.38;;;5.90;99.90;;;;;;5042982;28;20030;-61
2022/02/05 10:24:08;;;;;;;9.93;3.85;;;6.00;99.90;;;;;;5039722;28;20057;-59
2022/02/05 10:26:39;;;;;;;8.85;4.35;;;6.00;99.90;;;;;;5048254;28;20029;-60
2022/02/05 10:29:09;;;;;;;11.18;4.13;;;5.90;99.90;;;;;;5055069;28;20025;-60
2022/02/05 10:32:22;;;;;;;11.93;5.38;;;5.90;99.90;;;;;;5035590;28;20505;-60
2022/02/05 10:35:39;;;;;;;8.85;4.57;;;5.80;99.90;;;;;;5044471;28;20044;-60
2022/02/05 10:37:51;;;;;;;10.02;4.00;;;5.80;99.90;;;;;;5053474;28;20041;-62
2022/02/05 10:40:41;;;;;;;9.80;4.30;;;5.70;99.90;;;;;;5033608;28;20021;-61
2022/02/05 10:43:07;;;;;;;13.50;4.03;;;5.70;99.90;;;;;;5034706;28;20039;-59
2022/02/05 10:45:50;;;;;;;10.20;4.50;;;5.60;99.90;;;;;;5035463;28;20071;-60
2022/02/05 10:48:18;;;;;;;8.88;3.63;;;5.70;99.90;;;;;;5035282;28;20053;-60
2022/02/05 10:50:46;;;;;;;10.30;4.18;;;6.00;99.90;;;;;;5035026;28;20057;-60
2022/02/05 10:53:44;;;;;;;7.13;3.95;;;6.10;99.90;;;;;;5035050;28;20443;-60
2022/02/05 11:07:14;;;;;;;6.90;3.85;;;6.20;99.90;;;;;;5034210;28;20485;-60
2022/02/05 11:10:00;;;;;;;8.02;3.88;;;6.20;99.90;;;;;;5040070;28;20064;-59
2022/02/05 11:12:48;;;;;;;13.88;5.22;;;6.30;99.90;;;;;;5053804;28;20489;-60
2022/02/05 11:18:29;;;;;;;11.02;3.80;;;6.40;98.70;;;;;;5045313;28;20041;-60
2022/02/05 11:20:55;;;;;;;7.03;3.35;;;6.40;98.60;;;;;;5031853;28;20056;-68
2022/02/05 11:23:21;;;;;;;8.43;3.20;;;6.40;98.50;;;;;;5044849;28;20032;-61
2022/02/05 11:25:51;;;;;;;8.68;3.28;;;6.60;98.20;;;;;;5049926;28;20143;-60
2022/02/05 11:28:46;;;;;;;7.72;3.53;;;6.50;98.40;;;;;;5047220;28;20083;-63
2022/02/05 11:31:36;;;;;;;10.73;4.38;;;6.60;98.30;;;;;;5053205;28;20358;-64
2022/02/05 11:34:10;;;;;;;7.85;3.22;;;6.60;98.00;;;;;;5036219;28;20092;-60
2022/02/05 11:36:39;;;;;;;8.32;3.50;;;6.70;98.00;;;;;;5034475;28;20048;-60
2022/02/05 11:39:05;;;;;;;9.38;3.25;;;6.60;97.50;;;;;;5033748;28;20029;-60
2022/02/05 11:41:34;;;;;;;9.15;3.05;;;6.50;97.80;;;;;;5033976;28;20489;-60
2022/02/05 11:44:37;;;;;;;6.60;3.00;;;6.60;96.90;;;;;;5051774;28;20403;-61
2022/02/05 11:47:06;;;;;;;11.75;3.50;;;6.50;97.10;;;;;;5051548;28;20032;-60
2022/02/05 11:49:52;;;;;;;10.10;3.28;;;6.40;97.80;;;;;;5033189;28;20073;-62
2022/02/05 11:52:36;;;;;;;9.05;3.80;;;6.40;98.60;;;;;;5034314;28;20053;-61
2022/02/05 11:55:05;;;;;;;6.47;3.30;;;6.50;98.70;;;;;;5054496;28;20017;-61
2022/02/05 11:57:43;;;;;;;8.18;3.60;;;6.30;98.30;;;;;;5049556;28;20037;-60
2022/02/05 12:00:11;;;;;;;9.52;3.33;;;6.30;97.80;;;;;;5033031;28;20049;-62
2022/02/05 12:02:40;;;;;;;8.10;3.78;;;6.40;97.20;;;;;;5037924;28;20036;-58
2022/02/05 12:05:24;;;;;;;6.97;3.67;;;6.30;97.20;;;;;;5052636;28;20047;-57
2022/02/05 12:07:58;;;;;;;8.38;2.85;;;6.30;97.50;;;;;;5047580;28;20569;-58
2022/02/05 12:10:48;;;;;;;7.75;3.20;;;6.50;97.00;;;;;;5032855;28;20044;-58
2022/02/05 12:13:26;;;;;;;6.35;3.50;;;6.40;96.80;;;;;;5033778;28;20087;-56
2022/02/05 12:15:55;;;;;;;8.27;2.80;;;6.60;96.40;;;;;;5044875;28;20032;-61
2022/02/05 12:18:26;;;;;;;6.43;3.08;;;6.80;95.80;;;;;;5039570;28;20087;-61
2022/02/05 12:20:58;;;;;;;7.22;2.85;;;6.80;95.80;;;;;;5033611;28;20130;-58
2022/02/05 12:23:52;;;;;;;6.20;3.47;;;6.70;95.70;;;;;;5048442;28;20485;-61
2022/02/05 12:26:20;;;;;;;9.35;3.20;;;6.70;95.60;;;;;;5039425;28;20124;-62
2022/02/05 12:28:51;;;;;;;7.63;3.67;;;6.60;96.00;;;;;;5033620;28;20108;-60
2022/02/05 12:31:16;;;;;;;7.30;3.80;;;6.50;96.10;;;;;;5045799;28;20033;-59
2022/02/05 12:33:46;;;;;;;8.45;3.28;;;6.60;96.20;;;;;;5052688;28;20029;-60
2022/02/05 12:36:27;;;;;;;7.55;3.70;;;6.70;96.10;;;;;;5043107;28;20092;-59
2022/02/05 12:38:56;;;;;;;5.95;3.00;;;6.80;95.80;;;;;;5032134;28;20492;-60
2022/02/05 12:41:22;;;;;;;6.20;3.53;;;6.90;95.60;;;;;;5036867;28;20033;-60
2022/02/05 12:44:00;;;;;;;8.45;3.17;;;6.90;95.40;;;;;;5052787;28;20043;-60
2022/02/05 12:46:29;;;;;;;8.35;3.35;;;7.00;95.00;;;;;;5049344;28;20067;-59
2022/02/05 12:49:01;;;;;;;6.88;3.17;;;6.90;95.20;;;;;;5032743;28;20104;-59
2022/02/05 12:51:28;;;;;;;8.90;3.38;;;7.00;95.00;;;;;;5035811;28;20662;-60
2022/02/05 12:54:08;;;;;;;7.10;3.00;;;7.00;95.30;;;;;;5046821;28;20029;-59
2022/02/05 12:56:35;;;;;;;6.53;3.28;;;7.00;95.30;;;;;;5049896;28;20489;-61
2022/02/05 12:59:05;;;;;;;11.52;3.65;;;7.00;94.60;;;;;;5033715;28;20037;-61
2022/02/05 13:01:32;;;;;;;6.22;3.50;;;7.00;94.10;;;;;;5045451;28;20515;-61
2022/02/05 13:04:15;;;;;;;6.63;3.42;;;7.10;94.20;;;;;;5051111;28;20046;-61
2022/02/05 13:06:41;;;;;;;6.20;2.92;;;7.20;94.30;;;;;;5038903;28;20037;-61
2022/02/05 13:09:21;;;;;;;8.10;3.00;;;7.20;93.80;;;;;;5041054;28;20094;-61
2022/02/05 13:12:00;;;;;;;11.40;3.10;;;7.30;94.20;;;;;;5042448;28;20036;-62
2022/02/05 13:14:55;;;;;;;7.78;2.90;;;7.50;93.90;;;;;;5031200;28;20041;-59
2022/02/05 13:26:25;;;;;;;7.22;3.10;;;7.20;94.50;;;;;;5040488;28;20041;-61
2022/02/05 13:34:18;;;;;;;8.68;3.78;;;6.90;95.20;;;;;;5032693;28;20026;-59
2022/02/05 13:36:52;;;;;;;10.93;3.38;;;7.10;94.90;;;;;;5032301;28;20033;-62
2022/02/05 13:42:12;;;;;;;5.05;2.92;;;7.50;94.00;;;;;;5039292;28;20045;-60
2022/02/05 13:44:54;;;;;;;11.20;4.43;;;7.50;93.90;;;;;;5033144;28;20041;-60
2022/02/05 13:47:26;;;;;;;6.95;3.30;;;7.30;93.80;;;;;;5032870;28;20026;-61
2022/02/05 13:50:11;;;;;;;8.93;3.03;;;7.20;93.60;;;;;;5039202;28;20060;-60
2022/02/05 13:52:42;;;;;;;5.55;3.03;;;7.20;93.00;;;;;;5051626;28;20124;-60
2022/02/05 13:55:29;;;;;;;5.05;3.15;;;7.20;93.50;;;;;;5043198;28;20041;-60
2022/02/05 13:58:00;;;;;;;7.72;3.70;;;7.10;95.00;;;;;;5044250;28;20116;-59
2022/02/05 14:00:47;;;;;;;7.57;3.83;;;6.90;96.00;;;;;;5051978;28;20037;-60
2022/02/05 14:03:36;;;;;;;10.63;3.22;;;7.00;96.00;;;;;;5049509;28;20044;-61
2022/02/05 14:06:12;;;;;;;7.55;3.40;;;7.20;94.50;;;;;;5049994;28;20033;-61
2022/02/05 14:08:51;;;;;;;6.78;3.08;;;7.10;95.80;;;;;;5048288;28;20426;-62
2022/02/05 14:11:28;;;;;;;10.95;3.45;;;7.00;96.50;;;;;;5032143;28;20029;-61
2022/02/05 14:13:56;;;;;;;6.35;3.97;;;7.00;96.90;;;;;;5040950;28;20079;-60
2022/02/05 14:16:31;;;;;;;5.32;3.30;;;6.90;97.50;;;;;;5038874;28;20040;-61
2022/02/05 14:18:58;;;;;;;4.72;2.80;;;6.90;97.80;;;;;;5034699;28;20063;-57
2022/02/05 14:21:35;;;;;;;5.70;3.25;;;6.70;98.10;;;;;;5031896;28;20481;-60
2022/02/05 14:24:01;;;;;;;5.25;3.45;;;6.80;98.20;;;;;;5031584;28;20095;-60
2022/02/05 14:26:36;;;;;;;8.32;3.53;;;6.70;98.50;;;;;;5033724;28;20036;-62
2022/02/05 14:29:04;;;;;;;6.30;2.97;;;6.70;98.70;;;;;;5050931;28;20041;-61
2022/02/05 14:31:48;;;;;;;7.95;3.58;;;6.70;98.20;;;;;;5046591;28;20033;-60
2022/02/05 14:40:23;;;;;;;8.18;4.07;;;6.70;97.60;;;;;;5044986;28;20528;-61
2022/02/05 14:42:37;;;;;;;5.43;3.03;;;6.40;97.40;;;;;;5032824;28;20057;-61
2022/02/05 14:45:03;;;;;;;6.40;3.10;;;6.40;97.60;;;;;;5033789;28;20676;-61
2022/02/05 14:47:29;;;;;;;6.63;3.70;;;6.50;97.70;;;;;;5033127;28;20505;-61
2022/02/05 14:49:55;;;;;;;5.90;3.83;;;6.40;97.80;;;;;;5035763;28;20033;-61
2022/02/05 14:52:21;;;;;;;7.63;3.20;;;6.50;97.90;;;;;;5034213;28;20053;-60
2022/02/05 14:54:46;;;;;;;7.78;3.65;;;6.50;98.10;;;;;;5036475;28;20034;-61
2022/02/05 14:57:13;;;;;;;12.07;5.40;;;6.40;98.50;;;;;;5036334;28;20489;-61
2022/02/05 14:59:41;;;;;;;6.95;3.35;;;6.40;98.40;;;;;;5036457;28;20705;-60
2022/02/05 15:02:08;;;;;;;6.63;3.45;;;6.30;98.30;;;;;;5036159;28;20039;-59
2022/02/05 15:04:36;;;;;;;5.32;3.10;;;6.40;98.60;;;;;;5034797;28;20033;-61
2022/02/05 15:07:02;;;;;;;7.90;3.78;;;6.40;98.50;;;;;;5034712;28;20412;-61
2022/02/05 15:09:28;;;;;;;9.48;3.42;;;6.30;98.20;;;;;;5034394;28;20033;-59
2022/02/05 15:11:53;;;;;;;7.40;3.30;;;6.30;98.30;;;;;;5049279;28;20107;-58
2022/02/05 15:14:19;;;;;;;7.30;3.67;;;6.30;98.10;;;;;;5053266;28;20431;-59
2022/02/05 15:16:44;;;;;;;15.05;4.47;;;6.20;98.10;;;;;;5044763;28;20401;-62
2022/02/05 15:19:10;;;;;;;7.53;3.80;;;6.20;98.40;;;;;;5035303;28;20053;-58
2022/02/05 15:21:38;;;;;;;6.78;3.70;;;6.20;98.60;;;;;;5033527;28;20048;-61
2022/02/05 15:24:05;;;;;;;6.60;4.10;;;6.20;98.70;;;;;;5029189;28;20042;-58
2022/02/05 15:26:33;;;;;;;7.45;3.90;;;6.30;98.70;;;;;;5039639;28;20028;-61
2022/02/05 15:29:00;;;;;;;8.32;3.25;;;6.20;98.90;;;;;;5053538;28;20033;-61
2022/02/05 15:31:26;;;;;;;6.88;3.45;;;6.20;99.00;;;;;;5054803;28;20033;-60
2022/02/05 15:33:55;;;;;;;7.47;3.70;;;6.10;99.10;;;;;;5053878;28;20506;-61
2022/02/05 15:36:27;;;;;;;7.32;3.60;;;6.10;99.20;;;;;;5050157;28;20037;-61
2022/02/05 15:44:07;;;;;;;;;;;6.00;99.70;;;;;;5040716;28;20028;-63
2022/02/05 15:46:32;;;;;;;9.48;4.00;;;5.90;99.90;;;;;;5047909;28;19920;-60
2022/02/05 15:48:58;;;;;;;7.03;3.78;;;5.90;99.90;;;;;;5034765;28;20121;-61
2022/02/05 15:51:29;;;;;;;6.13;3.83;;;5.90;99.90;;;;;;5034155;28;20099;-59
2022/02/05 15:53:59;;;;;;;6.40;4.00;;;5.90;99.90;;;;;;5034008;28;20025;-59
2022/02/05 15:56:41;;;;;;;5.68;3.50;;;5.80;99.90;;;;;;5053766;28;20036;-61
2022/02/05 15:59:12;;;;;;;6.55;3.53;;;5.80;99.80;;;;;;5046526;28;20112;-61
2022/02/05 16:01:37;;;;;;;7.90;3.90;;;5.80;99.90;;;;;;5035505;28;20120;-57